Time;durP1;ratioP1;P1;durP2;ratioP2;P2;SDS_P1;SDS_P2;PMS_P1;PMS_P2;Temp;Humidity;BMP_temperature;BMP_pressure;BME280_temperature;BME280_humidity;BME280_pressure;Samples;Min_cycle;Max_cycle;Signal;HPM_P1;HPM_P2
2022/08/13 00:01:22;;;;;;;30.17;28.77;;;19.20;60.10;;;;;;4988712;28;20570;-65
2022/08/13 00:03:55;;;;;;;29.20;27.90;;;19.20;60.50;;;;;;4984356;28;20477;-65
2022/08/13 00:06:58;;;;;;;29.80;28.30;;;19.20;60.30;;;;;;4977852;28;20482;-65
2022/08/13 00:09:17;;;;;;;31.93;30.53;;;19.20;60.30;;;;;;4976067;28;20453;-65
2022/08/13 00:14:32;;;;;;;32.10;30.70;;;19.20;60.50;;;;;;4976287;28;20489;-66
2022/08/13 00:17:00;;;;;;;32.23;30.73;;;19.20;60.50;;;;;;4976196;28;20550;-65
2022/08/13 00:19:30;;;;;;;31.20;29.80;;;19.10;60.70;;;;;;4987274;28;20504;-65
2022/08/13 00:21:58;;;;;;;30.50;29.20;;;19.10;60.80;;;;;;4982802;28;20488;-65
2022/08/13 00:24:25;;;;;;;30.67;29.27;;;19.00;61.10;;;;;;4981696;28;20469;-65
2022/08/13 00:26:53;;;;;;;30.60;29.30;;;19.00;61.50;;;;;;4986138;28;20564;-65
2022/08/13 00:29:20;;;;;;;30.10;28.70;;;18.90;61.60;;;;;;4978132;28;20477;-65
2022/08/13 00:31:49;;;;;;;32.00;30.40;;;18.90;61.60;;;;;;4972229;28;21059;-65
2022/08/13 00:34:17;;;;;;;32.10;30.70;;;18.80;61.70;;;;;;4976007;28;20883;-65
2022/08/13 00:36:44;;;;;;;31.20;29.90;;;18.80;61.90;;;;;;4977680;28;20457;-65
2022/08/13 00:39:12;;;;;;;29.80;28.50;;;18.80;61.90;;;;;;4981631;28;21201;-65
2022/08/13 00:41:42;;;;;;;30.10;28.57;;;18.80;62.10;;;;;;4984710;28;20564;-64
2022/08/13 00:44:14;;;;;;;30.27;28.97;;;18.80;62.30;;;;;;4989860;28;20535;-65
2022/08/13 00:46:42;;;;;;;30.97;29.57;;;18.70;62.40;;;;;;4975573;28;20461;-65
2022/08/13 00:49:11;;;;;;;30.50;29.10;;;18.70;62.60;;;;;;4999976;28;20530;-64
2022/08/13 00:51:40;;;;;;;31.10;29.50;;;18.60;62.80;;;;;;4979704;28;20485;-65
2022/08/13 00:54:08;;;;;;;30.80;29.20;;;18.50;63.10;;;;;;4993045;28;20528;-65
2022/08/13 00:56:35;;;;;;;29.90;28.60;;;18.50;63.10;;;;;;4979589;28;20935;-67
2022/08/13 00:59:07;;;;;;;31.53;30.17;;;18.50;63.10;;;;;;4982952;28;20469;-68
2022/08/13 01:01:36;;;;;;;31.53;30.13;;;18.50;63.20;;;;;;4980790;28;20500;-69
2022/08/13 01:04:03;;;;;;;30.70;29.20;;;18.50;63.10;;;;;;4978573;28;20664;-68
2022/08/13 01:06:31;;;;;;;29.17;27.87;;;18.50;63.10;;;;;;4985789;28;20549;-68
2022/08/13 01:08:58;;;;;;;30.50;29.10;;;18.40;63.10;;;;;;4979149;28;20464;-67
2022/08/13 01:11:27;;;;;;;31.17;29.77;;;18.40;63.30;;;;;;4989449;28;20494;-67
2022/08/13 01:13:55;;;;;;;31.17;29.77;;;18.40;63.30;;;;;;4982636;28;20474;-67
2022/08/13 01:16:23;;;;;;;30.50;29.10;;;18.40;63.40;;;;;;4987050;28;20851;-68
2022/08/13 01:18:53;;;;;;;30.10;28.73;;;18.30;63.40;;;;;;4975059;28;20551;-68
2022/08/13 01:21:23;;;;;;;30.43;29.10;;;18.30;63.50;;;;;;4987416;28;20563;-67
2022/08/13 01:23:53;;;;;;;30.37;28.97;;;18.30;63.80;;;;;;4985980;28;20464;-71
2022/08/13 01:26:22;;;;;;;30.90;29.50;;;18.10;64.40;;;;;;4980729;28;20535;-67
2022/08/13 01:28:51;;;;;;;32.00;30.50;;;18.00;64.90;;;;;;4986099;28;21007;-67
2022/08/13 01:31:21;;;;;;;31.20;29.70;;;18.10;64.80;;;;;;4983750;28;20587;-67
2022/08/13 01:33:50;;;;;;;30.73;29.23;;;18.00;65.00;;;;;;4996677;28;20537;-67
2022/08/13 01:36:18;;;;;;;30.20;28.87;;;18.00;65.10;;;;;;4979990;28;20507;-68
2022/08/13 01:38:45;;;;;;;31.50;30.00;;;18.00;65.10;;;;;;4987410;28;20455;-67
2022/08/13 01:41:13;;;;;;;31.60;30.10;;;18.00;65.10;;;;;;4987003;28;20495;-68
2022/08/13 01:43:42;;;;;;;31.10;29.60;;;18.00;65.00;;;;;;4988542;28;20464;-69
2022/08/13 01:46:11;;;;;;;31.20;29.80;;;18.00;65.10;;;;;;4987749;28;20456;-64
2022/08/13 01:51:40;;;;;;;32.53;31.03;;;17.90;65.20;;;;;;4959520;28;20458;-65
2022/08/13 01:54:09;;;;;;;31.27;29.87;;;17.90;65.50;;;;;;4957391;28;20487;-65
2022/08/13 01:56:37;;;;;;;30.70;29.30;;;17.80;65.70;;;;;;4975052;28;20493;-65
2022/08/13 01:59:04;;;;;;;30.50;28.97;;;17.80;65.80;;;;;;4982109;28;20562;-68
2022/08/13 02:01:32;;;;;;;30.87;29.47;;;17.70;66.20;;;;;;4983679;28;20572;-70
2022/08/13 02:04:01;;;;;;;31.27;29.70;;;17.60;66.70;;;;;;4985399;28;20459;-68
2022/08/13 02:06:30;;;;;;;34.10;32.47;;;17.50;66.90;;;;;;4986326;28;20550;-69
2022/08/13 02:09:00;;;;;;;31.30;29.80;;;17.50;67.10;;;;;;4982033;28;20475;-67
2022/08/13 02:11:28;;;;;;;30.77;29.37;;;17.40;67.20;;;;;;4985711;28;21017;-67
2022/08/13 02:13:57;;;;;;;30.40;29.00;;;17.40;67.20;;;;;;4987541;28;20557;-68
2022/08/13 02:16:24;;;;;;;30.60;29.20;;;17.40;67.40;;;;;;4984742;28;20573;-68
2022/08/13 02:18:53;;;;;;;30.60;29.20;;;17.40;67.40;;;;;;4987142;28;20824;-67
2022/08/13 02:21:22;;;;;;;32.23;30.47;;;17.40;67.40;;;;;;4987877;28;20470;-68
2022/08/13 02:23:56;;;;;;;32.87;31.37;;;17.40;67.50;;;;;;4990784;28;20467;-67
2022/08/13 02:26:24;;;;;;;31.50;30.00;;;17.30;67.80;;;;;;4984433;28;20463;-67
2022/08/13 02:28:51;;;;;;;31.40;30.00;;;17.30;67.90;;;;;;4980922;28;20482;-67
2022/08/13 02:31:19;;;;;;;35.03;33.27;;;17.30;68.00;;;;;;4984893;28;20481;-67
2022/08/13 02:33:46;;;;;;;32.10;30.50;;;17.30;68.00;;;;;;4990340;28;20514;-69
2022/08/13 02:36:14;;;;;;;32.90;31.30;;;17.30;68.00;;;;;;4986666;28;21011;-67
2022/08/13 02:38:42;;;;;;;32.40;30.90;;;17.30;68.10;;;;;;4983976;28;20492;-67
2022/08/13 02:44:07;;;;;;;32.67;31.27;;;17.20;68.30;;;;;;4950000;28;20501;-67
2022/08/13 02:46:35;;;;;;;32.43;31.03;;;17.20;68.50;;;;;;4968063;28;20463;-68
2022/08/13 02:49:02;;;;;;;32.23;30.73;;;17.10;68.80;;;;;;4985049;28;20538;-68
2022/08/13 02:51:30;;;;;;;31.80;30.30;;;17.10;68.80;;;;;;4985550;28;20489;-67
2022/08/13 02:53:59;;;;;;;33.70;32.07;;;17.10;68.80;;;;;;4988332;28;20569;-67
2022/08/13 02:56:26;;;;;;;31.60;30.20;;;17.20;68.70;;;;;;4985372;28;20480;-65
2022/08/13 02:58:53;;;;;;;32.13;30.73;;;17.10;68.80;;;;;;4981204;28;20565;-65
2022/08/13 03:01:20;;;;;;;32.83;31.13;;;17.10;69.00;;;;;;4985446;28;20925;-64
2022/08/13 03:03:49;;;;;;;34.23;32.73;;;17.00;69.10;;;;;;4984572;28;20454;-65
2022/08/13 03:06:18;;;;;;;35.60;34.13;;;17.00;69.30;;;;;;4988883;28;20542;-65
2022/08/13 03:08:45;;;;;;;33.30;31.90;;;16.90;69.50;;;;;;4982696;28;20458;-65
2022/08/13 03:11:12;;;;;;;32.87;31.30;;;16.90;69.60;;;;;;4988284;28;22956;-65
2022/08/13 03:13:43;;;;;;;33.63;32.13;;;16.90;69.70;;;;;;4985102;28;20541;-65
2022/08/13 03:16:13;;;;;;;31.87;30.47;;;16.90;70.00;;;;;;4983526;28;20854;-65
2022/08/13 03:18:40;;;;;;;32.50;30.90;;;16.80;70.30;;;;;;4981519;28;20900;-65
2022/08/13 03:21:08;;;;;;;32.67;31.17;;;16.80;70.50;;;;;;4985856;28;20485;-65
2022/08/13 03:23:35;;;;;;;34.03;32.50;;;16.80;70.40;;;;;;4987726;28;20550;-65
2022/08/13 03:26:02;;;;;;;33.20;31.67;;;16.80;70.30;;;;;;4976179;28;20977;-65
2022/08/13 03:28:29;;;;;;;32.47;30.87;;;16.80;70.40;;;;;;4986245;28;20536;-68
2022/08/13 03:30:56;;;;;;;32.80;31.40;;;16.80;70.50;;;;;;4977788;28;21981;-67
2022/08/13 03:33:24;;;;;;;39.93;38.17;;;16.80;70.50;;;;;;4981690;28;21028;-68
2022/08/13 03:35:51;;;;;;;33.03;31.40;;;16.70;70.70;;;;;;4983071;28;20581;-67
2022/08/13 03:38:19;;;;;;;33.90;32.30;;;16.70;71.00;;;;;;4986825;28;21337;-68
2022/08/13 03:41:01;;;;;;;39.80;37.73;;;16.60;71.20;;;;;;4987739;28;20576;-67
2022/08/13 03:43:30;;;;;;;32.90;31.40;;;16.60;71.10;;;;;;4991137;28;20472;-68
2022/08/13 03:45:58;;;;;;;34.40;32.90;;;16.60;71.20;;;;;;4984915;28;20458;-67
2022/08/13 03:48:27;;;;;;;37.90;36.17;;;16.70;71.20;;;;;;4980041;28;20964;-67
2022/08/13 03:50:59;;;;;;;34.40;32.80;;;16.60;71.40;;;;;;4982682;28;20478;-68
2022/08/13 03:53:29;;;;;;;35.17;33.63;;;16.60;71.60;;;;;;4990496;28;20561;-67
2022/08/13 03:55:58;;;;;;;33.33;31.83;;;16.60;71.70;;;;;;4987094;28;20471;-68
2022/08/13 03:58:26;;;;;;;33.30;31.70;;;16.60;71.70;;;;;;4980860;28;20462;-67
2022/08/13 04:00:54;;;;;;;34.77;33.17;;;16.50;71.80;;;;;;4991623;28;20565;-67
2022/08/13 04:03:23;;;;;;;34.03;32.43;;;16.50;72.00;;;;;;4991588;28;20461;-68
2022/08/13 04:05:52;;;;;;;33.30;31.80;;;16.50;72.20;;;;;;4989879;28;20541;-67
2022/08/13 04:08:20;;;;;;;36.80;34.90;;;16.40;72.60;;;;;;4986581;28;20469;-67
2022/08/13 04:10:49;;;;;;;35.43;33.80;;;16.40;72.70;;;;;;4992526;28;20500;-67
2022/08/13 04:13:17;;;;;;;37.60;35.97;;;16.40;72.70;;;;;;4990323;28;20574;-67
2022/08/13 04:15:46;;;;;;;35.90;34.20;;;16.40;72.70;;;;;;4985959;28;20475;-67
2022/08/13 04:18:13;;;;;;;34.40;32.90;;;16.30;72.90;;;;;;4977467;28;20975;-67
2022/08/13 04:20:42;;;;;;;34.70;33.10;;;16.20;73.20;;;;;;4994237;28;20570;-68
2022/08/13 04:23:14;;;;;;;35.30;33.80;;;16.20;73.30;;;;;;4987608;28;20557;-67
2022/08/13 04:25:43;;;;;;;34.67;33.07;;;16.20;73.40;;;;;;4984131;28;20549;-67
2022/08/13 04:28:13;;;;;;;34.10;32.60;;;16.30;73.20;;;;;;4987309;28;20458;-67
2022/08/13 04:30:41;;;;;;;39.10;37.30;;;16.30;73.10;;;;;;4971220;28;20481;-69
2022/08/13 04:33:11;;;;;;;37.97;36.37;;;16.40;73.00;;;;;;4986738;28;20465;-69
2022/08/13 04:35:39;;;;;;;42.40;40.47;;;16.40;72.80;;;;;;4977526;28;20570;-67
2022/08/13 04:38:06;;;;;;;34.20;32.50;;;16.40;72.70;;;;;;4980203;28;20550;-70
2022/08/13 04:40:35;;;;;;;37.30;35.60;;;16.30;73.10;;;;;;4989397;28;20924;-70
2022/08/13 04:43:02;;;;;;;36.40;34.73;;;16.30;73.30;;;;;;4979129;28;20475;-68
2022/08/13 04:45:31;;;;;;;35.83;34.00;;;16.30;73.30;;;;;;4988660;28;20459;-68
2022/08/13 04:47:59;;;;;;;36.90;35.10;;;16.40;73.10;;;;;;4974014;28;20814;-68
2022/08/13 04:50:26;;;;;;;36.27;34.67;;;16.50;72.80;;;;;;4976213;28;20882;-67
2022/08/13 04:52:53;;;;;;;34.07;32.47;;;16.60;72.60;;;;;;4982704;28;20537;-68
2022/08/13 04:55:20;;;;;;;32.97;31.47;;;16.70;72.00;;;;;;4983171;28;20557;-67
2022/08/13 04:57:48;;;;;;;34.20;32.13;;;16.80;71.60;;;;;;4984880;28;20482;-68
2022/08/13 05:00:16;;;;;;;33.17;31.47;;;16.80;71.40;;;;;;4985821;28;20478;-70
2022/08/13 05:02:44;;;;;;;37.20;35.40;;;16.80;71.50;;;;;;4984498;28;20547;-71
2022/08/13 05:05:12;;;;;;;33.50;32.00;;;16.80;71.70;;;;;;4980412;28;20490;-68
2022/08/13 05:07:39;;;;;;;39.77;37.97;;;16.90;71.60;;;;;;4983648;28;20458;-67
2022/08/13 05:10:07;;;;;;;34.03;32.43;;;16.90;71.50;;;;;;4985479;28;20961;-68
2022/08/13 05:12:38;;;;;;;34.80;33.30;;;17.00;71.20;;;;;;4988477;28;20509;-68
2022/08/13 05:15:07;;;;;;;37.00;35.40;;;17.00;71.10;;;;;;4975195;28;20881;-69
2022/08/13 05:17:34;;;;;;;34.50;32.90;;;16.90;71.20;;;;;;4977354;28;20474;-70
2022/08/13 05:20:02;;;;;;;36.43;34.80;;;16.90;71.40;;;;;;4977587;28;20550;-68
2022/08/13 05:22:29;;;;;;;33.17;31.77;;;17.00;71.30;;;;;;4980606;28;20513;-68
2022/08/13 05:24:56;;;;;;;37.90;36.13;;;17.10;71.10;;;;;;4985717;28;21137;-71
2022/08/13 05:27:23;;;;;;;34.90;33.30;;;17.20;70.70;;;;;;4987360;28;20502;-68
2022/08/13 05:29:50;;;;;;;32.57;31.17;;;17.30;70.60;;;;;;4989874;28;20559;-70
2022/08/13 05:32:17;;;;;;;31.90;30.50;;;17.30;70.30;;;;;;4976470;28;20466;-69
2022/08/13 05:34:44;;;;;;;40.00;38.00;;;17.40;70.20;;;;;;4980788;28;20695;-68
2022/08/13 05:37:16;;;;;;;34.10;32.60;;;17.40;70.10;;;;;;4987060;28;20474;-68
2022/08/13 05:39:44;;;;;;;33.40;31.90;;;17.50;70.00;;;;;;4987936;28;20478;-67
2022/08/13 05:42:11;;;;;;;32.27;30.67;;;17.60;69.90;;;;;;4976895;28;21157;-69
2022/08/13 05:44:38;;;;;;;33.77;32.27;;;17.70;69.70;;;;;;4984883;28;20459;-68
2022/08/13 05:47:05;;;;;;;32.13;30.53;;;17.80;69.50;;;;;;4984606;28;20550;-69
2022/08/13 05:49:33;;;;;;;33.00;31.60;;;17.90;69.00;;;;;;4989477;28;20457;-69
2022/08/13 05:52:01;;;;;;;36.50;35.00;;;18.10;69.00;;;;;;4984904;28;20472;-68
2022/08/13 05:54:31;;;;;;;38.40;36.70;;;18.20;68.50;;;;;;4983577;28;20471;-69
2022/08/13 05:56:58;;;;;;;39.00;37.20;;;18.30;68.00;;;;;;4987544;28;20514;-70
2022/08/13 06:05:08;;;;;;;37.88;35.70;;;18.70;66.90;;;;;;4942136;28;20476;-68
2022/08/13 06:07:35;;;;;;;33.53;32.03;;;18.80;66.50;;;;;;4977500;28;20202;-69
2022/08/13 06:10:04;;;;;;;35.50;33.90;;;18.90;66.00;;;;;;4988312;28;21254;-69
2022/08/13 06:12:31;;;;;;;35.10;33.30;;;19.00;65.50;;;;;;4982669;28;20566;-69
2022/08/13 06:14:58;;;;;;;35.70;34.00;;;19.20;65.50;;;;;;4986744;28;20520;-68
2022/08/13 06:17:25;;;;;;;38.03;36.30;;;19.40;64.70;;;;;;4979428;28;20536;-67
2022/08/13 06:19:53;;;;;;;36.23;34.63;;;19.60;64.20;;;;;;4991340;28;20607;-68
2022/08/13 06:22:21;;;;;;;35.07;33.57;;;19.70;63.70;;;;;;4996287;28;20565;-68
2022/08/13 06:24:48;;;;;;;33.20;31.70;;;19.80;63.40;;;;;;4981814;28;20463;-68
2022/08/13 06:27:16;;;;;;;40.10;38.30;;;19.90;63.20;;;;;;4988354;28;20512;-67
2022/08/13 06:29:45;;;;;;;34.17;32.37;;;20.10;62.80;;;;;;4985708;28;20546;-67
2022/08/13 06:32:14;;;;;;;41.30;39.43;;;20.20;62.60;;;;;;4990927;28;20493;-67
2022/08/13 06:34:41;;;;;;;37.13;35.53;;;20.20;62.10;;;;;;4986631;28;20481;-65
2022/08/13 06:37:08;;;;;;;36.40;34.27;;;20.40;61.80;;;;;;4982374;28;20892;-66
2022/08/13 06:39:37;;;;;;;43.53;41.40;;;20.50;61.40;;;;;;4983674;28;21804;-67
2022/08/13 06:42:06;;;;;;;36.13;33.87;;;20.50;61.00;;;;;;4977391;28;20466;-67
2022/08/13 06:44:35;;;;;;;37.83;36.10;;;20.60;60.10;;;;;;4988630;28;20467;-67
2022/08/13 06:47:04;;;;;;;38.70;36.80;;;20.50;59.90;;;;;;4979128;28;20534;-69
2022/08/13 06:49:32;;;;;;;35.60;34.00;;;20.40;60.10;;;;;;4988160;28;20522;-70
2022/08/13 06:51:59;;;;;;;43.43;41.47;;;20.20;60.40;;;;;;4983705;28;20543;-70
2022/08/13 06:54:27;;;;;;;34.83;33.33;;;20.30;60.30;;;;;;4976386;28;20989;-70
2022/08/13 06:56:55;;;;;;;35.23;33.70;;;20.20;60.50;;;;;;4983772;28;20585;-70
2022/08/13 06:59:24;;;;;;;39.40;37.60;;;20.20;60.70;;;;;;4986617;28;20483;-72
2022/08/13 07:02:00;;;;;;;34.20;32.60;;;20.30;60.40;;;;;;4989025;28;20824;-69
2022/08/13 07:04:28;;;;;;;30.00;28.60;;;20.50;60.00;;;;;;4987236;28;20520;-68
2022/08/13 07:06:56;;;;;;;34.00;32.53;;;20.60;59.40;;;;;;4987659;28;20456;-68
2022/08/13 07:09:24;;;;;;;32.47;30.93;;;20.70;59.40;;;;;;4992144;28;20460;-69
2022/08/13 07:11:52;;;;;;;38.93;37.03;;;20.80;59.50;;;;;;4990277;28;20483;-69
2022/08/13 07:14:19;;;;;;;48.40;46.07;;;20.70;59.80;;;;;;4985254;28;20543;-69
2022/08/13 07:16:46;;;;;;;38.17;36.50;;;20.70;60.00;;;;;;4987982;28;21098;-69
2022/08/13 07:19:14;;;;;;;40.00;38.20;;;20.90;59.60;;;;;;4990479;28;20552;-70
2022/08/13 07:21:43;;;;;;;30.73;29.33;;;21.10;59.00;;;;;;4986376;28;20559;-70
2022/08/13 07:24:11;;;;;;;43.17;40.77;;;21.10;58.90;;;;;;4988219;28;20471;-69
2022/08/13 07:26:38;;;;;;;44.80;42.70;;;20.90;59.20;;;;;;4988954;28;20545;-69
2022/08/13 07:29:08;;;;;;;33.77;32.17;;;20.90;59.20;;;;;;4981450;28;21229;-69
2022/08/13 07:31:39;;;;;;;44.73;42.70;;;21.00;58.90;;;;;;4988985;28;20851;-69
2022/08/13 07:34:07;;;;;;;36.07;34.43;;;21.10;58.80;;;;;;4992276;28;20456;-70
2022/08/13 07:36:38;;;;;;;39.33;37.47;;;21.20;58.50;;;;;;4991614;28;20546;-69
2022/08/13 07:39:10;;;;;;;39.33;37.47;;;21.30;58.30;;;;;;4990169;28;20544;-69
2022/08/13 07:41:40;;;;;;;41.47;39.47;;;21.30;58.70;;;;;;4986538;28;21015;-69
2022/08/13 07:44:11;;;;;;;34.17;32.57;;;21.40;58.30;;;;;;4985752;28;20585;-69
2022/08/13 07:46:42;;;;;;;40.57;38.77;;;21.50;58.20;;;;;;4981091;28;20552;-69
2022/08/13 07:49:10;;;;;;;39.03;37.20;;;21.60;57.90;;;;;;4986239;28;20930;-69
2022/08/13 07:51:39;;;;;;;44.53;42.40;;;21.70;57.90;;;;;;4987131;28;20547;-69
2022/08/13 07:54:07;;;;;;;33.13;31.40;;;21.80;57.80;;;;;;4986932;28;20469;-69
2022/08/13 07:56:35;;;;;;;38.57;36.67;;;22.00;56.90;;;;;;4974898;28;20789;-69
2022/08/13 07:59:04;;;;;;;41.77;39.80;;;22.10;56.70;;;;;;4985213;28;20455;-68
2022/08/13 08:01:34;;;;;;;33.80;32.00;;;22.20;56.40;;;;;;4986112;28;20569;-68
2022/08/13 08:04:05;;;;;;;43.67;41.40;;;22.30;56.10;;;;;;4992898;28;20469;-68
2022/08/13 08:06:33;;;;;;;33.83;32.23;;;22.20;56.40;;;;;;4976625;28;20987;-69
2022/08/13 08:09:01;;;;;;;41.27;38.93;;;22.20;56.60;;;;;;4983929;28;20967;-67
2022/08/13 08:14:25;;;;;;;33.13;31.70;;;22.20;56.40;;;;;;4940315;28;20554;-69
2022/08/13 08:16:52;;;;;;;43.97;41.87;;;22.30;56.40;;;;;;4985087;28;20458;-68
2022/08/13 08:19:19;;;;;;;42.87;40.63;;;22.50;56.00;;;;;;4986188;28;20900;-68
2022/08/13 08:21:47;;;;;;;36.20;34.37;;;22.50;56.10;;;;;;4980690;28;21040;-68
2022/08/13 08:24:17;;;;;;;32.90;31.30;;;22.60;56.00;;;;;;4982675;28;20489;-69
2022/08/13 08:26:47;;;;;;;40.43;38.27;;;22.60;55.90;;;;;;4987998;28;20553;-68
2022/08/13 08:29:16;;;;;;;35.80;34.00;;;22.80;55.70;;;;;;4983135;28;20462;-69
2022/08/13 08:31:44;;;;;;;46.10;43.90;;;23.00;55.20;;;;;;4985541;28;20529;-69
2022/08/13 08:34:12;;;;;;;38.00;36.10;;;23.20;54.70;;;;;;4981961;28;20552;-69
2022/08/13 08:36:41;;;;;;;36.33;34.63;;;23.30;54.50;;;;;;4979190;28;20470;-69
2022/08/13 08:44:56;;;;;;;29.93;28.53;;;23.30;54.50;;;;;;4982242;28;20544;-68
2022/08/13 08:47:28;;;;;;;51.80;49.40;;;23.40;54.30;;;;;;4983681;28;20473;-69
2022/08/13 08:49:57;;;;;;;34.97;32.87;;;23.40;54.40;;;;;;4980855;28;20470;-68
2022/08/13 08:53:19;;;;;;;36.60;34.90;;;23.50;54.10;;;;;;4986980;28;20462;-69
2022/08/13 08:55:15;;;;;;;32.50;31.00;;;23.60;53.80;;;;;;4983880;28;20566;-69
2022/08/13 08:57:45;;;;;;;43.93;41.83;;;23.80;53.30;;;;;;4984847;28;20481;-69
2022/08/13 09:00:15;;;;;;;29.63;28.03;;;23.90;52.90;;;;;;4983238;28;20510;-68
2022/08/13 09:02:46;;;;;;;46.80;44.20;;;23.90;52.90;;;;;;4985035;28;20462;-70
2022/08/13 09:05:15;;;;;;;32.23;30.73;;;24.00;52.90;;;;;;4972579;28;20883;-71
2022/08/13 09:07:46;;;;;;;34.53;32.93;;;24.00;52.80;;;;;;4981140;28;20457;-66
2022/08/13 09:10:14;;;;;;;47.93;45.47;;;24.00;53.00;;;;;;4992072;28;20483;-66
2022/08/13 09:12:44;;;;;;;35.37;33.77;;;24.00;53.00;;;;;;4984856;28;20550;-66
2022/08/13 09:15:12;;;;;;;40.80;39.00;;;23.90;53.00;;;;;;4985177;28;20490;-68
2022/08/13 09:17:40;;;;;;;44.77;42.57;;;23.90;53.10;;;;;;4984162;28;20482;-67
2022/08/13 09:20:12;;;;;;;30.97;29.57;;;24.00;52.90;;;;;;4987562;28;20474;-67
2022/08/13 09:22:40;;;;;;;32.33;30.90;;;24.30;52.60;;;;;;4985780;28;20482;-67
2022/08/13 09:25:09;;;;;;;33.70;32.10;;;24.40;51.80;;;;;;4985835;28;20482;-68
2022/08/13 09:27:38;;;;;;;40.27;38.37;;;24.50;51.70;;;;;;4986097;28;20863;-67
2022/08/13 09:30:07;;;;;;;34.83;33.23;;;24.60;51.90;;;;;;4983602;28;20479;-67
2022/08/13 09:32:35;;;;;;;43.03;40.53;;;24.50;51.80;;;;;;4985393;28;21056;-66
2022/08/13 09:35:04;;;;;;;32.93;31.43;;;24.50;51.90;;;;;;4987184;28;20527;-67
2022/08/13 09:37:40;;;;;;;43.77;41.70;;;24.50;52.00;;;;;;4987193;28;20479;-70
2022/08/13 09:40:09;;;;;;;34.60;32.70;;;24.60;51.40;;;;;;4985084;28;20506;-67
2022/08/13 09:42:44;;;;;;;45.57;43.23;;;24.70;51.20;;;;;;4985558;28;20555;-67
2022/08/13 09:45:14;;;;;;;45.10;42.83;;;24.90;50.80;;;;;;4984018;28;20697;-67
2022/08/13 09:47:41;;;;;;;36.93;35.13;;;24.80;50.90;;;;;;4986058;28;20451;-67
2022/08/13 09:50:10;;;;;;;29.20;27.80;;;24.80;50.70;;;;;;4986914;28;20571;-66
2022/08/13 09:52:37;;;;;;;32.40;30.70;;;25.00;49.70;;;;;;4983568;28;20981;-67
2022/08/13 09:55:05;;;;;;;38.87;36.70;;;25.00;50.00;;;;;;4992327;28;20562;-67
2022/08/13 09:57:48;;;;;;;41.67;39.43;;;25.10;49.30;;;;;;4993171;28;21159;-67
2022/08/13 10:00:20;;;;;;;43.93;41.53;;;25.20;48.50;;;;;;4986276;28;20479;-66
2022/08/13 10:02:50;;;;;;;43.47;41.27;;;25.10;48.70;;;;;;4990254;28;20464;-67
2022/08/13 10:05:19;;;;;;;42.63;40.63;;;25.10;48.30;;;;;;5000939;28;20510;-67
2022/08/13 10:07:46;;;;;;;42.57;40.47;;;25.20;48.40;;;;;;4984946;28;20474;-66
2022/08/13 10:10:13;;;;;;;35.07;33.30;;;25.50;47.90;;;;;;4991186;28;20499;-67
2022/08/13 10:12:41;;;;;;;34.67;32.97;;;25.70;46.80;;;;;;4996693;28;20557;-67
2022/08/13 10:15:09;;;;;;;32.40;30.80;;;25.70;46.70;;;;;;4988019;28;20473;-67
2022/08/13 10:17:51;;;;;;;43.90;41.70;;;25.50;47.00;;;;;;4993378;28;20473;-66
2022/08/13 10:20:21;;;;;;;37.90;35.80;;;25.70;46.90;;;;;;4982388;28;20548;-69
2022/08/13 10:22:48;;;;;;;33.90;32.30;;;25.60;46.40;;;;;;4980036;28;20463;-69
2022/08/13 10:25:16;;;;;;;39.20;37.03;;;25.30;47.00;;;;;;4994187;28;20548;-71
2022/08/13 10:27:44;;;;;;;35.37;33.60;;;25.40;47.20;;;;;;4978446;28;20512;-68
2022/08/13 10:30:12;;;;;;;31.57;30.07;;;25.60;46.80;;;;;;4983985;28;20493;-68
2022/08/13 10:32:39;;;;;;;47.20;44.30;;;25.70;46.20;;;;;;4977363;28;20454;-69
2022/08/13 10:35:09;;;;;;;49.50;47.10;;;25.80;46.20;;;;;;4988097;28;20557;-69
2022/08/13 10:37:44;;;;;;;34.37;32.67;;;25.90;46.00;;;;;;4987640;28;20887;-68
2022/08/13 10:40:13;;;;;;;38.43;36.53;;;25.80;46.10;;;;;;4992137;28;20581;-68
2022/08/13 10:42:40;;;;;;;32.30;30.70;;;25.80;46.00;;;;;;4982565;28;20558;-69
2022/08/13 10:45:08;;;;;;;38.77;36.67;;;25.90;45.50;;;;;;4987924;28;20541;-68
2022/08/13 10:47:45;;;;;;;50.77;48.27;;;25.90;45.90;;;;;;4990587;28;20963;-68
2022/08/13 10:50:13;;;;;;;35.50;33.90;;;25.80;45.20;;;;;;4986713;28;20951;-69
2022/08/13 10:52:41;;;;;;;35.10;33.40;;;25.90;44.50;;;;;;4988535;28;20466;-68
2022/08/13 10:55:11;;;;;;;38.23;36.40;;;26.00;44.30;;;;;;4994238;28;20519;-69
2022/08/13 10:57:40;;;;;;;34.37;32.70;;;26.00;44.30;;;;;;4991374;28;20454;-69
2022/08/13 11:00:09;;;;;;;40.47;38.53;;;26.00;44.50;;;;;;4986737;28;20480;-69
2022/08/13 11:02:37;;;;;;;43.07;40.87;;;25.90;44.80;;;;;;4985715;28;20517;-69
2022/08/13 11:05:05;;;;;;;43.40;41.40;;;25.80;44.70;;;;;;4981888;28;20462;-70
2022/08/13 11:07:34;;;;;;;34.67;32.87;;;26.10;44.60;;;;;;4980931;28;20546;-67
2022/08/13 11:10:03;;;;;;;33.53;32.03;;;26.40;43.90;;;;;;4988411;28;20509;-69
2022/08/13 11:12:30;;;;;;;43.63;41.63;;;26.50;43.50;;;;;;4981423;28;20475;-69
2022/08/13 11:14:57;;;;;;;35.30;33.60;;;26.70;43.10;;;;;;4994380;28;20538;-69
2022/08/13 11:17:24;;;;;;;42.37;40.37;;;26.70;42.90;;;;;;4982584;28;20561;-69
2022/08/13 11:19:51;;;;;;;35.67;33.97;;;26.60;42.90;;;;;;4992984;28;20488;-71
2022/08/13 11:22:19;;;;;;;49.57;47.17;;;26.70;42.80;;;;;;4985989;28;20975;-69
2022/08/13 11:24:47;;;;;;;35.60;33.73;;;26.60;43.30;;;;;;4990319;28;20463;-69
2022/08/13 11:27:16;;;;;;;35.10;33.50;;;26.70;42.70;;;;;;4981127;28;20466;-69
2022/08/13 11:29:43;;;;;;;36.90;35.20;;;26.80;42.70;;;;;;4987484;28;20571;-69
2022/08/13 11:32:10;;;;;;;42.97;40.83;;;27.00;42.50;;;;;;4985691;28;20469;-68
2022/08/13 11:34:37;;;;;;;40.00;37.60;;;27.10;41.90;;;;;;4991160;28;20475;-71
2022/08/13 11:37:04;;;;;;;38.43;36.43;;;27.20;41.90;;;;;;4975853;28;20468;-69
2022/08/13 11:39:31;;;;;;;45.60;43.20;;;27.40;41.50;;;;;;4983041;28;20893;-70
2022/08/13 11:42:00;;;;;;;34.60;33.00;;;27.40;41.40;;;;;;4986389;28;21007;-69
2022/08/13 11:44:26;;;;;;;37.10;35.33;;;27.40;41.40;;;;;;4983807;28;20542;-69
2022/08/13 11:46:54;;;;;;;42.43;40.27;;;27.30;41.00;;;;;;4985429;28;21050;-69
2022/08/13 11:49:21;;;;;;;46.93;44.53;;;27.40;41.10;;;;;;4988337;28;20794;-69
2022/08/13 11:51:49;;;;;;;36.97;35.27;;;27.60;40.60;;;;;;4981767;28;20572;-69
2022/08/13 11:54:18;;;;;;;37.07;34.97;;;27.60;40.50;;;;;;4985359;28;20470;-69
2022/08/13 11:56:45;;;;;;;51.17;48.53;;;27.70;40.40;;;;;;4983145;28;20490;-69
2022/08/13 11:59:13;;;;;;;37.90;36.20;;;27.70;40.20;;;;;;4982236;28;20486;-69
2022/08/13 12:01:40;;;;;;;43.27;40.83;;;27.80;40.40;;;;;;4984881;28;21103;-70
2022/08/13 12:04:07;;;;;;;37.73;35.97;;;27.90;40.30;;;;;;4983688;28;20756;-69
2022/08/13 12:06:35;;;;;;;34.37;32.77;;;27.80;40.00;;;;;;4992618;28;20553;-74
2022/08/13 12:09:03;;;;;;;33.87;32.30;;;27.80;40.50;;;;;;4988896;28;20824;-68
2022/08/13 12:11:30;;;;;;;39.50;37.70;;;27.90;40.50;;;;;;4986528;28;20975;-69
2022/08/13 12:13:57;;;;;;;31.77;30.17;;;28.10;40.00;;;;;;4984717;28;20477;-69
2022/08/13 12:16:26;;;;;;;36.30;34.60;;;28.10;39.80;;;;;;4987647;28;21368;-70
2022/08/13 12:18:53;;;;;;;50.83;48.20;;;28.20;39.70;;;;;;4988302;28;20565;-69
2022/08/13 12:21:20;;;;;;;34.10;32.50;;;28.20;39.90;;;;;;4976925;28;20478;-71
2022/08/13 12:23:47;;;;;;;33.83;32.20;;;28.20;39.50;;;;;;4988570;28;20935;-72
2022/08/13 12:26:14;;;;;;;36.47;34.67;;;28.30;39.40;;;;;;4986585;28;20545;-71
2022/08/13 12:28:40;;;;;;;38.43;36.53;;;28.40;39.40;;;;;;4982345;28;20469;-70
2022/08/13 12:31:08;;;;;;;47.00;44.80;;;28.50;39.30;;;;;;4981959;28;20566;-67
2022/08/13 12:33:39;;;;;;;57.17;54.53;;;28.50;39.20;;;;;;4982604;28;20554;-67
2022/08/13 12:36:07;;;;;;;38.07;36.17;;;28.40;39.50;;;;;;4982351;28;21531;-67
2022/08/13 12:38:34;;;;;;;39.87;37.97;;;28.60;39.10;;;;;;4980665;28;20489;-67
2022/08/13 12:41:02;;;;;;;44.70;42.60;;;28.50;39.20;;;;;;4978353;28;20504;-67
2022/08/13 12:43:29;;;;;;;41.17;39.30;;;28.70;39.20;;;;;;4981515;28;21010;-67
2022/08/13 12:45:57;;;;;;;55.47;52.30;;;29.00;38.90;;;;;;4987372;28;21007;-67
2022/08/13 12:48:30;;;;;;;39.00;37.13;;;29.10;38.40;;;;;;4980894;28;20483;-67
2022/08/13 12:50:59;;;;;;;47.13;44.87;;;29.20;38.00;;;;;;4980209;28;20477;-70
2022/08/13 12:53:26;;;;;;;45.50;43.10;;;29.40;37.60;;;;;;4994893;28;20461;-69
2022/08/13 12:55:52;;;;;;;47.43;45.27;;;29.30;37.30;;;;;;4981946;28;20470;-68
2022/08/13 12:58:21;;;;;;;40.03;37.93;;;29.20;37.50;;;;;;4980879;28;20963;-71